Time;durP1;ratioP1;P1;durP2;ratioP2;P2;SDS_P1;SDS_P2;PMS_P1;PMS_P2;Temp;Humidity;BMP_temperature;BMP_pressure;BME280_temperature;BME280_humidity;BME280_pressure;Samples;Min_cycle;Max_cycle;Signal;HPM_P1;HPM_P2
2023/06/19 00:01:48;;;;;;;0.25;0.25;;;;;;;12.29;100.00;99990.13;5020533;28;20387;-81
2023/06/19 00:04:14;;;;;;;0.28;0.28;;;;;;;12.22;100.00;99983.91;5020523;28;20037;-79
2023/06/19 00:06:39;;;;;;;0.30;0.30;;;;;;;12.12;100.00;99980.78;5020430;28;20395;-80
2023/06/19 00:09:06;;;;;;;0.20;0.20;;;;;;;12.26;100.00;99990.56;5053393;28;20032;-81
2023/06/19 00:11:32;;;;;;;0.20;0.20;;;;;;;12.26;100.00;99987.84;5053020;28;20040;-82
2023/06/19 00:13:57;;;;;;;0.30;0.30;;;;;;;12.21;100.00;99976.84;5054159;28;20021;-84
2023/06/19 00:16:24;;;;;;;0.20;0.20;;;;;;;12.06;100.00;99982.41;5020136;28;20033;-84
2023/06/19 00:18:51;;;;;;;0.30;0.30;;;;;;;11.94;100.00;99980.56;5036903;28;20028;-81
2023/06/19 00:21:17;;;;;;;0.30;0.30;;;;;;;11.81;100.00;99974.06;5053251;28;20041;-81
2023/06/19 00:23:42;;;;;;;0.20;0.20;;;;;;;11.72;100.00;99971.75;5036189;28;20039;-82
2023/06/19 00:26:08;;;;;;;0.30;0.30;;;;;;;11.62;100.00;99970.28;5052509;28;20033;-82
2023/06/19 00:28:34;;;;;;;0.30;0.30;;;;;;;11.57;100.00;99971.91;5052943;28;20102;-81
2023/06/19 00:31:00;;;;;;;0.30;0.30;;;;;;;11.54;100.00;99961.56;5052604;28;20036;-82
2023/06/19 00:33:25;;;;;;;0.20;0.20;;;;;;;11.40;100.00;99953.41;5019807;28;20075;-81
2023/06/19 00:35:51;;;;;;;0.30;0.30;;;;;;;11.36;100.00;99967.47;5036171;28;20037;-82
2023/06/19 00:38:17;;;;;;;0.22;0.22;;;;;;;11.32;100.00;99969.72;5019722;28;20098;-80
2023/06/19 00:40:43;;;;;;;0.43;0.30;;;;;;;11.33;100.00;99967.88;5052543;28;20788;-82
2023/06/19 00:43:08;;;;;;;0.30;0.30;;;;;;;11.43;100.00;99971.88;5052415;28;20043;-81
2023/06/19 00:45:34;;;;;;;0.30;0.30;;;;;;;11.43;100.00;99966.47;5019687;28;20052;-84
2023/06/19 00:48:00;;;;;;;0.77;0.47;;;;;;;11.36;100.00;99954.84;5019264;28;20078;-85
2023/06/19 00:50:28;;;;;;;0.77;0.38;;;;;;;11.36;100.00;99962.91;5051814;28;20033;-83
2023/06/19 00:52:57;;;;;;;0.30;0.30;;;;;;;11.32;100.00;99961.66;5052564;28;20040;-80
2023/06/19 00:55:23;;;;;;;0.30;0.30;;;;;;;11.21;100.00;99952.28;5036593;28;20029;-81
2023/06/19 00:57:52;;;;;;;0.30;0.30;;;;;;;11.25;100.00;99959.97;5019150;28;20463;-81
2023/06/19 01:00:17;;;;;;;0.20;0.20;;;;;;;11.20;100.00;99966.78;5020095;28;20033;-81
2023/06/19 01:02:43;;;;;;;0.20;0.20;;;;;;;11.30;100.00;99958.34;5052464;28;20029;-81
2023/06/19 01:05:09;;;;;;;0.30;0.30;;;;;;;11.38;100.00;99962.72;5019387;28;20460;-82
2023/06/19 01:07:35;;;;;;;0.20;0.20;;;;;;;11.50;100.00;99962.97;5019315;28;20517;-80
2023/06/19 01:10:05;;;;;;;0.45;0.40;;;;;;;11.60;100.00;99961.56;5053283;28;20036;-81
2023/06/19 01:12:37;;;;;;;0.30;0.30;;;;;;;11.54;100.00;99948.09;5052113;28;20100;-80
2023/06/19 01:15:05;;;;;;;0.30;0.30;;;;;;;11.58;100.00;99960.91;5053531;28;20036;-80
2023/06/19 01:17:33;;;;;;;0.30;0.30;;;;;;;11.53;100.00;99958.00;5036043;28;20025;-80
2023/06/19 01:19:59;;;;;;;0.30;0.30;;;;;;;11.43;100.00;99961.09;5051783;28;20029;-83
2023/06/19 01:22:31;;;;;;;0.25;0.25;;;;;;;11.41;100.00;99962.31;5052334;28;20129;-83
2023/06/19 01:24:57;;;;;;;0.20;0.20;;;;;;;11.43;100.00;99961.09;5052457;28;20048;-82
2023/06/19 01:27:23;;;;;;;0.22;0.22;;;;;;;11.53;100.00;99944.53;5035924;28;20098;-81
2023/06/19 01:29:49;;;;;;;0.60;0.50;;;;;;;11.85;100.00;99955.63;5002772;28;20051;-82
2023/06/19 01:32:21;;;;;;;0.20;0.20;;;;;;;12.01;100.00;99962.50;5051749;28;20021;-80
2023/06/19 01:34:47;;;;;;;0.30;0.30;;;;;;;12.05;100.00;99961.09;5051640;28;20469;-82
2023/06/19 01:37:13;;;;;;;0.52;0.40;;;;;;;12.16;100.00;99965.84;5035005;28;20035;-83
2023/06/19 01:39:39;;;;;;;0.20;0.20;;;;;;;12.31;100.00;99958.41;5035724;28;20124;-83
2023/06/19 01:42:05;;;;;;;0.30;0.30;;;;;;;12.27;100.00;99937.47;5051708;28;20060;-80
2023/06/19 01:44:31;;;;;;;0.30;0.30;;;;;;;12.27;100.00;99949.06;5018846;28;20060;-80
2023/06/19 01:46:56;;;;;;;0.20;0.20;;;;;;;12.28;100.00;99953.44;5018966;28;20087;-80
2023/06/19 01:49:22;;;;;;;0.38;0.30;;;;;;;12.23;100.00;99945.16;5019149;28;20036;-80
2023/06/19 01:51:48;;;;;;;0.30;0.30;;;;;;;12.16;100.00;99955.06;5018875;28;20531;-80
2023/06/19 01:54:13;;;;;;;0.40;0.40;;;;;;;12.10;100.00;99950.53;5034826;28;20094;-81
2023/06/19 01:56:39;;;;;;;0.20;0.20;;;;;;;11.97;100.00;99954.03;5018850;28;20114;-79
2023/06/19 01:59:05;;;;;;;0.30;0.30;;;;;;;11.83;100.00;99942.38;5019076;28;20064;-80
2023/06/19 02:01:30;;;;;;;0.30;0.30;;;;;;;11.81;100.00;99949.00;5019043;28;20033;-80
2023/06/19 02:03:56;;;;;;;0.30;0.30;;;;;;;11.79;100.00;99951.03;5051693;28;20112;-81
2023/06/19 02:06:21;;;;;;;0.30;0.30;;;;;;;11.86;100.00;99944.69;5018904;28;20094;-81
2023/06/19 02:08:48;;;;;;;0.20;0.20;;;;;;;11.90;100.00;99952.34;5035709;28;20033;-80
2023/06/19 02:11:14;;;;;;;0.30;0.30;;;;;;;11.92;100.00;99950.28;5055287;28;20497;-80
2023/06/19 02:13:39;;;;;;;0.20;0.20;;;;;;;11.87;100.00;99949.03;5022594;28;20085;-82
2023/06/19 02:16:05;;;;;;;0.20;0.20;;;;;;;11.83;100.00;99955.84;5022503;28;20060;-80
2023/06/19 02:18:31;;;;;;;0.20;0.20;;;;;;;11.86;100.00;99952.75;5022530;28;20039;-80
2023/06/19 02:20:56;;;;;;;0.30;0.30;;;;;;;11.93;100.00;99939.28;5022434;28;20422;-80
2023/06/19 02:23:22;;;;;;;0.20;0.20;;;;;;;12.17;100.00;99956.75;5022410;28;20056;-81
2023/06/19 02:25:47;;;;;;;0.20;0.20;;;;;;;12.23;100.00;99950.53;5022360;28;20031;-83
2023/06/19 02:28:13;;;;;;;0.45;0.40;;;;;;;12.21;100.00;99947.22;5054572;28;20128;-81
2023/06/19 02:30:39;;;;;;;0.30;0.30;;;;;;;12.15;100.00;99942.66;5038643;28;20123;-80
2023/06/19 02:33:04;;;;;;;0.30;0.30;;;;;;;12.13;100.00;99947.41;5055912;28;20029;-79
2023/06/19 02:35:30;;;;;;;0.22;0.22;;;;;;;12.07;100.00;99932.91;5021985;28;20293;-83
2023/06/19 02:37:56;;;;;;;0.30;0.30;;;;;;;12.22;100.00;99940.78;5038098;28;20033;-79
2023/06/19 02:40:21;;;;;;;0.20;0.20;;;;;;;12.37;100.00;99943.28;5037906;28;20032;-81
2023/06/19 02:42:47;;;;;;;0.40;0.40;;;;;;;12.51;100.00;99953.00;5038143;28;20428;-79
2023/06/19 02:45:13;;;;;;;0.20;0.20;;;;;;;12.60;100.00;99944.72;5021663;28;20037;-80
2023/06/19 02:47:39;;;;;;;0.30;0.30;;;;;;;12.74;100.00;99951.75;5021994;28;20047;-80
2023/06/19 02:50:06;;;;;;;0.30;0.30;;;;;;;12.87;100.00;99951.72;5054463;28;20033;-80
2023/06/19 02:52:31;;;;;;;0.30;0.30;;;;;;;12.97;100.00;99944.03;5021443;28;20094;-79
2023/06/19 02:54:57;;;;;;;0.55;0.40;;;;;;;13.17;100.00;99945.84;5055640;28;20036;-81
2023/06/19 02:57:22;;;;;;;0.25;0.25;;;;;;;13.35;100.00;99950.59;5021202;28;20471;-80
2023/06/19 02:59:48;;;;;;;0.22;0.22;;;;;;;13.44;100.00;99949.28;5037761;28;20051;-79
2023/06/19 03:02:14;;;;;;;0.30;0.30;;;;;;;13.50;100.00;99948.47;5038227;28;20072;-80
2023/06/19 03:04:41;;;;;;;0.25;0.25;;;;;;;13.54;100.00;99949.66;5021596;28;20082;-80
2023/06/19 03:07:06;;;;;;;0.20;0.20;;;;;;;13.55;100.00;99954.03;5037846;28;20037;-80
2023/06/19 03:09:32;;;;;;;0.43;0.35;;;;;;;13.59;100.00;99946.31;5053848;28;20112;-80
2023/06/19 03:11:57;;;;;;;0.38;0.35;;;;;;;13.63;100.00;99953.78;5054351;28;20064;-83
2023/06/19 03:14:23;;;;;;;0.30;0.30;;;;;;;13.62;100.00;99952.13;5054036;28;20127;-80
2023/06/19 03:16:51;;;;;;;0.20;0.20;;;;;;;13.64;100.00;99947.34;5021278;28;20025;-80
2023/06/19 03:19:16;;;;;;;0.20;0.20;;;;;;;13.54;100.00;99933.47;5021480;28;20091;-80
2023/06/19 03:21:42;;;;;;;0.20;0.20;;;;;;;13.67;100.00;99954.19;5020965;28;20024;-80
2023/06/19 03:24:08;;;;;;;0.30;0.30;;;;;;;13.64;100.00;99947.34;5021129;28;20121;-79
2023/06/19 03:26:33;;;;;;;0.30;0.30;;;;;;;13.66;100.00;99949.84;5021205;28;20043;-80
2023/06/19 03:28:59;;;;;;;0.20;0.20;;;;;;;13.68;100.00;99950.44;5053886;28;20033;-79
2023/06/19 03:31:25;;;;;;;0.20;0.20;;;;;;;13.67;100.00;99958.75;5037609;28;20395;-80
2023/06/19 03:33:50;;;;;;;0.30;0.30;;;;;;;13.65;100.00;99956.25;5037363;28;20502;-81
2023/06/19 03:36:16;;;;;;;0.30;0.30;;;;;;;13.61;100.00;99939.66;5053770;28;20063;-80
2023/06/19 03:38:42;;;;;;;0.40;0.40;;;;;;;13.66;100.00;99941.72;5037371;28;20486;-80
2023/06/19 03:41:07;;;;;;;0.20;0.20;;;;;;;13.60;100.00;99946.13;5036668;28;20483;-81
2023/06/19 03:43:33;;;;;;;0.45;0.38;;;;;;;13.55;100.00;99948.63;5053543;28;20103;-82
2023/06/19 03:45:58;;;;;;;0.30;0.30;;;;;;;13.52;100.00;99949.06;5053443;28;20037;-81
2023/06/19 03:48:24;;;;;;;0.30;0.30;;;;;;;13.56;100.00;99950.28;5020768;28;20517;-80
2023/06/19 03:50:50;;;;;;;0.25;0.25;;;;;;;13.54;100.00;99943.44;5036961;28;20021;-81
2023/06/19 03:53:15;;;;;;;0.30;0.30;;;;;;;13.55;100.00;99947.81;5053490;28;20029;-83
2023/06/19 03:55:42;;;;;;;0.30;0.30;;;;;;;13.49;100.00;99945.97;5054307;28;20029;-81
2023/06/19 03:58:08;;;;;;;0.30;0.30;;;;;;;13.34;100.00;99938.97;5036656;28;20017;-82
2023/06/19 04:00:33;;;;;;;0.30;0.30;;;;;;;13.13;100.00;99931.13;5053308;28;20036;-81
2023/06/19 04:03:02;;;;;;;0.30;0.30;;;;;;;13.09;100.00;99935.28;5037149;28;20035;-84
2023/06/19 04:05:28;;;;;;;0.20;0.20;;;;;;;13.07;100.00;99945.44;5053368;28;20137;-82
2023/06/19 04:07:53;;;;;;;0.30;0.30;;;;;;;13.03;100.00;99953.16;5019977;28;20032;-81
2023/06/19 04:10:19;;;;;;;0.30;0.30;;;;;;;12.98;100.00;99952.97;5020331;28;20120;-82
2023/06/19 04:12:46;;;;;;;0.30;0.30;;;;;;;12.93;100.00;99948.19;5036107;28;20029;-80
2023/06/19 04:15:11;;;;;;;0.40;0.40;;;;;;;12.93;100.00;99953.59;5052972;28;20056;-81
2023/06/19 04:17:37;;;;;;;0.30;0.30;;;;;;;12.94;100.00;99949.84;5036295;28;20119;-81
2023/06/19 04:20:10;;;;;;;0.30;0.30;;;;;;;13.01;100.00;99954.41;5019948;28;20387;-81
2023/06/19 04:22:38;;;;;;;0.80;0.43;;;;;;;13.13;100.00;99953.53;5020841;28;20044;-83
2023/06/19 04:25:06;;;;;;;0.20;0.20;;;;;;;13.25;100.00;99961.78;5052478;28;20428;-81
2023/06/19 04:27:31;;;;;;;0.60;0.50;;;;;;;13.26;100.00;99954.53;5052473;28;20039;-81
2023/06/19 04:29:57;;;;;;;0.30;0.30;;;;;;;13.22;100.00;99945.22;5036395;28;20037;-81
2023/06/19 04:32:23;;;;;;;0.38;0.38;;;;;;;13.30;100.00;99956.63;5019477;28;20041;-81
2023/06/19 04:34:48;;;;;;;0.30;0.30;;;;;;;13.32;100.00;99957.25;5052662;28;20029;-81
2023/06/19 04:37:19;;;;;;;0.43;0.40;;;;;;;13.34;100.00;99959.75;5019899;28;20031;-82
2023/06/19 04:39:45;;;;;;;0.30;0.30;;;;;;;13.33;100.00;99960.78;5020410;28;20463;-81
2023/06/19 04:42:19;;;;;;;0.38;0.38;;;;;;;13.27;100.00;99961.63;5019807;28;20129;-84
2023/06/19 04:44:48;;;;;;;0.30;0.30;;;;;;;13.17;100.00;99960.16;5036340;28;20029;-83
2023/06/19 04:47:16;;;;;;;0.30;0.30;;;;;;;13.18;100.00;99958.31;5052714;28;20048;-84
2023/06/19 04:49:42;;;;;;;0.20;0.20;;;;;;;13.27;100.00;99958.94;5035886;28;20508;-81
2023/06/19 04:52:08;;;;;;;0.30;0.30;;;;;;;13.37;100.00;99970.13;5019643;28;20033;-83
2023/06/19 04:54:33;;;;;;;0.43;0.40;;;;;;;13.43;100.00;99957.63;5035752;28;20062;-83
2023/06/19 04:56:59;;;;;;;0.30;0.30;;;;;;;13.49;100.00;99954.06;5035656;28;20028;-84
2023/06/19 04:59:25;;;;;;;0.30;0.30;;;;;;;13.45;100.00;99959.06;5019466;28;20036;-81
2023/06/19 05:01:53;;;;;;;0.50;0.40;;;;;;;13.34;100.00;99959.75;5019246;28;20041;-81
2023/06/19 05:04:22;;;;;;;0.20;0.20;;;;;;;13.28;100.00;99957.88;5053451;28;20499;-81
2023/06/19 05:06:51;;;;;;;0.22;0.22;;;;;;;13.33;100.00;99960.78;5052081;28;20040;-82
2023/06/19 05:09:17;;;;;;;0.20;0.20;;;;;;;13.39;100.00;99959.94;5035769;28;20036;-82
2023/06/19 05:11:43;;;;;;;0.30;0.30;;;;;;;13.30;100.00;99953.09;5052153;28;20025;-81
2023/06/19 05:14:08;;;;;;;0.25;0.25;;;;;;;13.17;100.00;99954.75;5052262;28;20379;-81
2023/06/19 05:16:34;;;;;;;0.40;0.40;;;;;;;13.37;100.00;99953.91;5019394;28;20036;-81
2023/06/19 05:19:00;;;;;;;0.40;0.40;;;;;;;14.01;100.00;99961.06;5019338;28;20037;-80
2023/06/19 05:21:26;;;;;;;0.30;0.30;;;;;;;14.31;100.00;99960.41;5019589;28;20033;-81
2023/06/19 05:23:52;;;;;;;0.30;0.30;;;;;;;14.56;100.00;99954.25;5035579;28;20360;-81
2023/06/19 05:26:22;;;;;;;0.30;0.30;;;;;;;14.63;100.00;99960.41;5052265;28;20060;-83
2023/06/19 05:28:49;;;;;;;0.30;0.30;;;;;;;14.53;100.00;99958.22;5052138;28;20070;-81
2023/06/19 05:31:14;;;;;;;0.40;0.40;;;;;;;14.29;100.00;99968.78;5019266;28;20037;-82
2023/06/19 05:33:41;;;;;;;0.40;0.40;;;;;;;15.10;100.00;99961.59;5052415;28;20043;-82
2023/06/19 05:36:07;;;;;;;0.40;0.40;;;;;;;15.89;100.00;99966.28;5051574;28;20112;-82
2023/06/19 05:38:32;;;;;;;0.40;0.40;;;;;;;16.55;100.00;99967.16;5051954;28;20124;-82
2023/06/19 05:40:59;;;;;;;0.40;0.40;;;;;;;17.09;100.00;99968.72;5037970;28;20037;-82
2023/06/19 05:43:25;;;;;;;0.40;0.40;;;;;;;17.55;100.00;99972.41;5037547;28;20033;-79
2023/06/19 05:45:52;;;;;;;0.30;0.30;;;;;;;17.93;100.00;99971.00;5022726;28;20039;-80
2023/06/19 05:48:17;;;;;;;0.30;0.30;;;;;;;18.24;100.00;99969.66;5055781;28;20053;-79
2023/06/19 05:50:43;;;;;;;0.30;0.30;;;;;;;18.51;100.00;99963.56;5055723;28;20072;-83
2023/06/19 05:53:08;;;;;;;0.43;0.43;;;;;;;18.73;100.00;99974.53;5039357;28;20025;-80
2023/06/19 05:55:34;;;;;;;0.50;0.50;;;;;;;19.00;100.00;99966.53;5055424;28;20108;-80
2023/06/19 05:58:00;;;;;;;0.40;0.40;;;;;;;19.22;100.00;99971.19;5055341;28;20081;-79
2023/06/19 06:00:26;;;;;;;0.60;0.60;;;;;;;19.21;100.00;99964.06;5055505;28;20476;-81
2023/06/19 06:02:51;;;;;;;0.60;0.60;;;;;;;19.31;100.00;99970.47;5022628;28;20037;-81
2023/06/19 06:05:20;;;;;;;0.68;0.68;;;;;;;19.52;100.00;99970.75;5022394;28;20049;-80
2023/06/19 06:07:46;;;;;;;0.95;0.95;;;;;;;19.75;100.00;99967.78;5006563;28;20033;-80
2023/06/19 06:10:12;;;;;;;0.88;0.82;;;;;;;20.08;100.00;99963.19;5056348;28;20488;-79
2023/06/19 06:12:37;;;;;;;1.33;1.20;;;;;;;20.28;100.00;99975.41;5038519;28;20171;-80
2023/06/19 06:15:05;;;;;;;2.15;1.30;;;;;;;20.47;100.00;99960.28;5022365;28;20051;-80
2023/06/19 06:17:31;;;;;;;2.83;1.70;;;;;;;20.72;100.00;99984.28;5038530;28;20029;-80
2023/06/19 06:19:57;;;;;;;3.28;0.93;;;;;;;20.77;100.00;99976.13;5056545;28;20045;-80
2023/06/19 06:22:22;;;;;;;2.53;1.50;;;;;;;20.83;99.53;99963.31;5054705;28;20130;-78
2023/06/19 06:24:48;;;;;;;2.40;1.52;;;;;;;20.94;99.62;99981.41;5055255;28;20021;-81
2023/06/19 06:27:14;;;;;;;5.55;1.63;;;;;;;21.04;98.45;99986.13;5055302;28;20119;-80
2023/06/19 06:29:39;;;;;;;3.28;1.33;;;;;;;21.00;97.03;99974.88;5022028;28;20356;-80
2023/06/19 06:32:09;;;;;;;3.30;1.73;;;;;;;21.36;97.78;99982.47;5056178;28;20056;-80
2023/06/19 06:34:35;;;;;;;3.20;2.17;;;;;;;21.55;97.20;99991.06;5024091;28;20045;-80
2023/06/19 06:37:02;;;;;;;2.30;1.40;;;;;;;21.89;97.56;99985.97;5039043;28;20025;-81
2023/06/19 06:39:28;;;;;;;1.95;1.38;;;;;;;22.07;94.04;99990.09;5054810;28;20025;-80
2023/06/19 06:41:53;;;;;;;6.65;3.97;;;;;;;22.11;96.22;99985.75;5054908;28;20372;-83
2023/06/19 06:44:19;;;;;;;5.60;3.50;;;;;;;22.49;96.27;99995.41;5038246;28;20462;-80
2023/06/19 06:46:44;;;;;;;1.55;1.17;;;;;;;22.66;92.32;99992.41;5037936;28;20431;-80
2023/06/19 06:49:11;;;;;;;2.10;1.40;;;;;;;22.76;93.86;99992.41;5038069;28;20037;-83
2023/06/19 06:51:37;;;;;;;1.48;1.20;;;;;;;22.83;90.93;99994.84;5038377;28;20045;-80
2023/06/19 06:54:02;;;;;;;2.42;1.67;;;;;;;22.57;90.78;99983.06;5021905;28;20033;-83
2023/06/19 06:56:28;;;;;;;2.50;1.50;;;;;;;22.66;93.10;99983.34;5021119;28;20025;-81
2023/06/19 06:58:53;;;;;;;2.45;1.73;;;;;;;23.02;94.99;99989.63;5037621;28;20386;-79
2023/06/19 07:01:19;;;;;;;3.80;1.70;;;;;;;23.35;92.05;99995.59;5055467;28;20025;-81
2023/06/19 07:03:45;;;;;;;3.95;1.77;;;;;;;22.61;91.44;99995.13;5054265;28;20029;-83
2023/06/19 07:06:10;;;;;;;2.30;1.33;;;;;;;22.68;91.01;99997.59;5055636;28;20119;-82
2023/06/19 07:08:38;;;;;;;2.90;1.92;;;;;;;22.91;92.62;99985.25;5037475;28;20048;-80
2023/06/19 07:11:04;;;;;;;3.28;2.30;;;;;;;23.38;91.98;99993.09;5038085;28;20520;-82
2023/06/19 07:13:29;;;;;;;4.95;1.73;;;;;;;23.82;93.50;99997.09;5037664;28;20037;-81
2023/06/19 07:15:55;;;;;;;5.15;2.00;;;;;;;23.99;88.76;99997.53;5054384;28;20494;-81
2023/06/19 07:18:20;;;;;;;3.20;1.88;;;;;;;24.00;88.95;99995.59;5053869;28;20111;-83
2023/06/19 07:20:46;;;;;;;4.85;1.95;;;;;;;24.15;88.17;100001.00;5021057;28;20040;-82
2023/06/19 07:23:12;;;;;;;2.92;1.70;;;;;;;24.00;86.43;99981.88;5054029;28;20033;-83
2023/06/19 07:25:38;;;;;;;3.47;1.98;;;;;;;23.90;87.99;99989.06;5037405;28;20036;-81
2023/06/19 07:28:04;;;;;;;3.55;1.70;;;;;;;24.21;88.38;99999.84;5037215;28;20042;-82
2023/06/19 07:30:30;;;;;;;4.10;2.00;;;;;;;24.49;92.00;100003.81;5020807;28;20557;-82
2023/06/19 07:32:56;;;;;;;1.70;1.40;;;;;;;25.00;87.40;99997.03;5037401;28;20056;-82
2023/06/19 07:35:22;;;;;;;4.20;2.05;;;;;;;25.12;87.99;100004.91;5053639;28;20088;-83
2023/06/19 07:37:47;;;;;;;3.20;1.70;;;;;;;25.51;85.42;100002.03;5037401;28;20036;-83
2023/06/19 07:40:13;;;;;;;2.22;1.80;;;;;;;25.80;87.47;100001.94;5037139;28;20497;-82
2023/06/19 07:42:38;;;;;;;5.03;1.77;;;;;;;25.75;82.98;100002.00;5053886;28;20037;-83
2023/06/19 07:45:05;;;;;;;2.60;1.60;;;;;;;25.12;84.88;100004.91;5037218;28;20533;-83
2023/06/19 07:47:30;;;;;;;2.50;1.52;;;;;;;24.82;87.22;99998.56;5054805;28;20029;-83
2023/06/19 07:49:56;;;;;;;2.58;1.77;;;;;;;23.49;92.38;100000.19;5053928;28;20159;-84
2023/06/19 07:52:22;;;;;;;5.25;2.33;;;;;;;24.56;92.49;100004.31;5055082;28;20115;-82
2023/06/19 07:54:52;;;;;;;3.00;1.83;;;;;;;25.00;93.90;100006.09;5037289;28;20391;-83
2023/06/19 07:57:18;;;;;;;3.45;1.85;;;;;;;25.62;86.38;100009.03;5054940;28;20033;-83
2023/06/19 07:59:44;;;;;;;4.55;2.30;;;;;;;26.16;86.41;100012.47;5052125;28;20025;-81
2023/06/19 08:02:11;;;;;;;3.38;1.77;;;;;;;26.84;84.85;100010.31;5052976;28;20052;-83
2023/06/19 08:04:36;;;;;;;3.22;1.73;;;;;;;27.07;78.39;99992.78;5020541;28;20467;-83
2023/06/19 08:07:02;;;;;;;4.72;2.10;;;;;;;26.80;78.74;100001.81;5036036;28;20044;-84
2023/06/19 08:09:27;;;;;;;2.60;1.45;;;;;;;26.65;78.41;100002.91;5053320;28;20029;-84
2023/06/19 08:11:53;;;;;;;3.58;1.75;;;;;;;24.34;88.00;99990.16;5054517;28;20044;-83
2023/06/19 08:14:19;;;;;;;2.92;1.60;;;;;;;24.68;89.71;100008.59;5054144;28;20029;-83
2023/06/19 08:16:45;;;;;;;4.03;1.85;;;;;;;25.32;86.46;100009.38;5036516;28;20025;-83
2023/06/19 08:19:10;;;;;;;2.80;1.75;;;;;;;25.84;89.23;100005.75;5003902;28;20035;-84
2023/06/19 08:21:36;;;;;;;2.95;1.83;;;;;;;26.03;83.99;100004.94;5053125;28;20033;-83
2023/06/19 08:24:02;;;;;;;2.47;1.50;;;;;;;26.16;82.54;100015.22;5036491;28;20083;-83
2023/06/19 08:26:28;;;;;;;4.68;2.00;;;;;;;25.91;80.90;100007.31;5036726;28;20040;-84
2023/06/19 08:28:54;;;;;;;2.65;1.80;;;;;;;26.17;81.54;100008.59;5053101;28;20487;-83
2023/06/19 08:31:21;;;;;;;3.13;1.75;;;;;;;26.38;80.47;100014.59;5052605;28;20036;-81
2023/06/19 08:33:50;;;;;;;2.80;1.35;;;;;;;26.09;80.11;100007.34;5052349;28;20032;-82
2023/06/19 08:36:17;;;;;;;3.35;1.48;;;;;;;26.03;80.34;100010.44;5053632;28;20041;-81
2023/06/19 08:38:42;;;;;;;2.78;1.60;;;;;;;26.75;77.65;100012.94;5053543;28;20069;-81
2023/06/19 08:41:08;;;;;;;2.85;1.50;;;;;;;27.60;71.47;100008.03;5053518;28;20432;-81
2023/06/19 08:43:34;;;;;;;2.35;1.70;;;;;;;28.00;69.83;99995.34;5035539;28;20040;-82
2023/06/19 08:46:17;;;;;;;2.05;1.45;;;;;;;27.87;71.08;100010.00;5036039;28;20429;-80
2023/06/19 08:48:43;;;;;;;3.40;2.05;;;;;;;28.57;67.74;100016.16;5052081;28;20029;-81
2023/06/19 08:51:10;;;;;;;3.53;1.75;;;;;;;28.59;63.68;99991.78;5036059;28;20119;-81
2023/06/19 08:53:43;;;;;;;2.85;1.83;;;;;;;28.89;64.49;100004.00;5035722;28;20391;-83
2023/06/19 08:56:09;;;;;;;4.65;1.80;;;;;;;29.31;64.77;99996.25;5035804;28;20467;-81
2023/06/19 08:58:34;;;;;;;3.05;1.60;;;;;;;29.80;59.02;100005.41;5019546;28;20036;-83
2023/06/19 09:01:00;;;;;;;2.83;1.50;;;;;;;29.79;59.09;100000.97;5052404;28;20021;-83
2023/06/19 09:03:26;;;;;;;2.92;1.40;;;;;;;26.83;66.66;100008.66;5035742;28;20128;-83
2023/06/19 09:05:51;;;;;;;2.47;1.63;;;;;;;25.76;71.41;100003.63;5052193;28;20276;-83
2023/06/19 09:08:19;;;;;;;2.28;1.50;;;;;;;24.48;76.33;99998.63;5051863;28;20037;-83
2023/06/19 09:11:04;;;;;;;4.18;1.98;;;;;;;26.96;71.84;100003.19;5050915;28;20654;-82
2023/06/19 09:13:39;;;;;;;2.45;1.50;;;;;;;27.43;65.39;100000.41;5035882;28;20041;-83
2023/06/19 09:16:08;;;;;;;2.13;1.73;;;;;;;27.29;64.42;100010.63;5019446;28;20056;-83
2023/06/19 09:18:45;;;;;;;3.25;2.05;;;;;;;28.79;58.40;100002.34;5018768;28;20048;-82
2023/06/19 09:21:17;;;;;;;3.85;1.70;;;;;;;27.29;57.85;99999.59;5035722;28;20151;-82
2023/06/19 09:23:43;;;;;;;;;;;;;;;26.00;65.32;99997.28;5036156;28;20079;-83
2023/06/19 09:26:09;;;;;;;2.10;1.50;;;;;;;25.17;66.51;99991.13;5052054;28;19944;-83
2023/06/19 09:28:41;;;;;;;5.80;2.10;;;;;;;25.62;67.01;99992.50;5019133;28;20025;-83
2023/06/19 09:31:06;;;;;;;4.13;2.53;;;;;;;26.29;62.75;99989.66;5052310;28;20079;-82
2023/06/19 09:33:34;;;;;;;3.45;2.03;;;;;;;29.16;55.70;99994.72;5052129;28;20387;-83
2023/06/19 09:36:02;;;;;;;2.75;1.40;;;;;;;30.14;48.83;99996.31;5052292;28;20116;-83
2023/06/19 09:38:29;;;;;;;4.40;1.73;;;;;;;30.68;45.52;99998.75;5035571;28;20037;-82
2023/06/19 09:40:56;;;;;;;2.25;1.40;;;;;;;28.74;49.00;99988.63;5003143;28;20036;-82
2023/06/19 09:43:25;;;;;;;2.97;1.48;;;;;;;26.61;53.58;99995.53;5035465;28;20037;-83
2023/06/19 09:45:55;;;;;;;2.03;1.30;;;;;;;27.83;50.12;99981.34;5018950;28;20039;-83
2023/06/19 09:48:26;;;;;;;1.58;1.10;;;;;;;27.83;49.58;99982.16;5019354;28;20518;-83
2023/06/19 09:50:55;;;;;;;2.42;1.60;;;;;;;27.81;49.89;99994.66;5035590;28;20551;-82
2023/06/19 09:53:20;;;;;;;2.42;1.40;;;;;;;28.11;46.91;99976.59;5019094;28;20033;-82
2023/06/19 09:55:52;;;;;;;2.63;1.30;;;;;;;28.21;47.67;99989.31;5035362;28;20068;-83
2023/06/19 09:58:20;;;;;;;2.28;1.15;;;;;;;29.51;42.92;99978.25;5035687;28;20056;-84
2023/06/19 10:00:46;;;;;;;2.00;1.30;;;;;;;27.23;46.12;99989.75;5019466;28;20542;-83
2023/06/19 10:03:14;;;;;;;4.13;1.52;;;;;;;25.55;50.50;99985.72;5052342;28;20037;-84
2023/06/19 10:05:40;;;;;;;1.35;0.85;;;;;;;24.14;53.20;99980.13;5035001;28;20483;-85
2023/06/19 10:08:06;;;;;;;1.67;1.00;;;;;;;23.29;56.02;99974.75;5035703;28;20037;-84
2023/06/19 10:10:34;;;;;;;2.08;1.27;;;;;;;22.64;57.82;99991.03;5035436;28;20506;-84
2023/06/19 10:13:11;;;;;;;4.38;1.67;;;;;;;22.12;60.17;99990.13;5052299;28;20068;-84
2023/06/19 10:15:41;;;;;;;2.80;1.40;;;;;;;21.89;63.51;99988.72;5020921;28;20033;-83
2023/06/19 10:18:07;;;;;;;2.53;1.10;;;;;;;21.82;64.69;99980.75;5053126;28;20029;-83
2023/06/19 10:20:37;;;;;;;1.92;1.00;;;;;;;21.74;65.83;99976.63;5051805;28;20036;-84
2023/06/19 10:23:07;;;;;;;1.42;1.10;;;;;;;21.77;66.41;99986.22;5018897;28;20490;-84
2023/06/19 10:25:38;;;;;;;3.65;1.83;;;;;;;21.73;68.23;99979.66;5035305;28;20037;-84
2023/06/19 10:28:08;;;;;;;2.25;1.35;;;;;;;21.95;67.99;99977.50;5018633;28;20063;-84
2023/06/19 10:30:34;;;;;;;2.50;1.52;;;;;;;22.17;64.90;99985.50;5021219;28;20029;-84
2023/06/19 10:33:02;;;;;;;2.85;1.40;;;;;;;22.39;65.05;99988.00;5038578;28;20087;-84
2023/06/19 10:35:28;;;;;;;3.67;1.50;;;;;;;22.98;62.63;99991.31;5055157;28;20029;-83
2023/06/19 10:37:54;;;;;;;4.13;1.75;;;;;;;23.07;61.49;99992.38;5054987;28;20032;-84
2023/06/19 10:40:20;;;;;;;1.80;1.20;;;;;;;22.97;61.38;99986.91;5054769;28;20033;-84
2023/06/19 10:42:46;;;;;;;1.80;1.15;;;;;;;22.08;64.12;99994.50;5038704;28;20490;-84
2023/06/19 10:45:15;;;;;;;2.92;1.17;;;;;;;21.37;66.59;99987.66;5054683;28;20040;-85
2023/06/19 10:47:41;;;;;;;2.75;1.30;;;;;;;20.89;69.19;99988.75;5038838;28;20403;-85
2023/06/19 10:50:12;;;;;;;3.25;1.30;;;;;;;20.52;71.14;99987.63;5055742;28;20033;-84
2023/06/19 10:52:40;;;;;;;3.72;1.23;;;;;;;20.26;72.05;99992.03;5022094;28;20106;-85
2023/06/19 10:55:07;;;;;;;2.28;1.35;;;;;;;20.13;72.34;99979.63;5055814;28;20032;-85
2023/06/19 10:57:33;;;;;;;2.83;1.10;;;;;;;20.08;73.18;99979.56;5038081;28;20123;-84
2023/06/19 10:59:59;;;;;;;3.53;1.48;;;;;;;20.26;76.85;99993.94;5054677;28;20027;-85
2023/06/19 11:02:25;;;;;;;3.95;1.65;;;;;;;20.17;78.67;99986.22;5054490;28;20403;-85
2023/06/19 11:04:55;;;;;;;5.82;3.50;;;;;;;20.10;82.73;99988.31;5054184;28;20025;-84
2023/06/19 11:07:22;;;;;;;6.93;4.80;;;;;;;20.20;84.24;99968.50;5021448;28;20029;-85
2023/06/19 11:09:49;;;;;;;3.88;2.75;;;;;;;20.73;83.57;99982.38;5037801;28;20120;-84
2023/06/19 11:12:21;;;;;;;4.20;2.67;;;;;;;21.46;81.53;99983.38;5054581;28;20025;-85
2023/06/19 11:14:50;;;;;;;4.23;3.00;;;;;;;22.10;77.46;99978.66;5021551;28;20029;-84
2023/06/19 11:17:18;;;;;;;2.90;1.65;;;;;;;25.04;67.77;99981.59;5021190;28;20771;-85
2023/06/19 11:19:44;;;;;;;2.92;1.88;;;;;;;28.69;50.56;99974.94;5038032;28;20040;-84
2023/06/19 11:22:10;;;;;;;3.70;1.60;;;;;;;28.23;46.39;99973.25;5053993;28;20491;-86
2023/06/19 11:24:39;;;;;;;3.42;1.10;;;;;;;26.43;48.56;99980.63;5037926;28;20033;-83
2023/06/19 11:27:05;;;;;;;2.58;1.13;;;;;;;25.58;51.49;99972.19;5054180;28;20145;-83